sensor_id;sensor_type;location;lat;lon;timestamp;P1;durP1;ratioP1;P2;durP2;ratioP2
75847;SDS011;65750;47.540;19.090;2023-04-03T00:01:49;5.00;;;3.17;;
75847;SDS011;65750;47.540;19.090;2023-04-03T00:04:17;4.70;;;3.10;;
75847;SDS011;65750;47.540;19.090;2023-04-03T00:06:44;4.85;;;2.97;;
75847;SDS011;65750;47.540;19.090;2023-04-03T00:09:11;5.75;;;3.33;;
75847;SDS011;65750;47.540;19.090;2023-04-03T00:11:38;4.37;;;2.80;;
75847;SDS011;65750;47.540;19.090;2023-04-03T00:14:05;5.82;;;3.10;;
75847;SDS011;65750;47.540;19.090;2023-04-03T00:16:32;4.70;;;3.30;;
75847;SDS011;65750;47.540;19.090;2023-04-03T00:19:01;4.57;;;2.78;;
75847;SDS011;65750;47.540;19.090;2023-04-03T00:21:28;5.28;;;2.97;;
75847;SDS011;65750;47.540;19.090;2023-04-03T00:23:55;5.10;;;3.22;;
75847;SDS011;65750;47.540;19.090;2023-04-03T00:26:23;4.15;;;2.92;;
75847;SDS011;65750;47.540;19.090;2023-04-03T00:28:50;5.27;;;3.27;;
75847;SDS011;65750;47.540;19.090;2023-04-03T00:31:17;5.45;;;3.30;;
75847;SDS011;65750;47.540;19.090;2023-04-03T00:33:44;4.22;;;2.90;;
75847;SDS011;65750;47.540;19.090;2023-04-03T00:36:13;5.05;;;3.10;;
75847;SDS011;65750;47.540;19.090;2023-04-03T00:38:40;4.78;;;3.33;;
75847;SDS011;65750;47.540;19.090;2023-04-03T00:41:07;4.40;;;3.40;;
75847;SDS011;65750;47.540;19.090;2023-04-03T00:43:35;4.65;;;2.80;;
75847;SDS011;65750;47.540;19.090;2023-04-03T00:46:02;5.45;;;3.05;;
75847;SDS011;65750;47.540;19.090;2023-04-03T00:48:30;4.85;;;3.08;;
75847;SDS011;65750;47.540;19.090;2023-04-03T00:50:59;4.90;;;2.95;;
75847;SDS011;65750;47.540;19.090;2023-04-03T00:53:29;5.60;;;2.90;;
75847;SDS011;65750;47.540;19.090;2023-04-03T00:55:58;4.68;;;3.10;;
75847;SDS011;65750;47.540;19.090;2023-04-03T00:58:27;4.30;;;3.05;;
75847;SDS011;65750;47.540;19.090;2023-04-03T01:00:57;5.25;;;2.87;;
75847;SDS011;65750;47.540;19.090;2023-04-03T01:03:25;4.28;;;2.70;;
75847;SDS011;65750;47.540;19.090;2023-04-03T01:05:53;4.93;;;3.40;;
75847;SDS011;65750;47.540;19.090;2023-04-03T01:08:20;4.65;;;3.10;;
75847;SDS011;65750;47.540;19.090;2023-04-03T01:10:49;3.95;;;2.80;;
75847;SDS011;65750;47.540;19.090;2023-04-03T01:13:19;4.75;;;3.15;;
75847;SDS011;65750;47.540;19.090;2023-04-03T01:15:49;4.32;;;2.95;;
75847;SDS011;65750;47.540;19.090;2023-04-03T01:18:16;4.93;;;3.20;;
75847;SDS011;65750;47.540;19.090;2023-04-03T01:23:38;4.68;;;3.03;;
75847;SDS011;65750;47.540;19.090;2023-04-03T01:26:12;5.85;;;3.10;;
75847;SDS011;65750;47.540;19.090;2023-04-03T01:28:40;4.10;;;2.70;;
75847;SDS011;65750;47.540;19.090;2023-04-03T01:31:10;4.20;;;2.80;;
75847;SDS011;65750;47.540;19.090;2023-04-03T01:33:43;4.47;;;2.97;;
75847;SDS011;65750;47.540;19.090;2023-04-03T01:36:13;4.10;;;2.85;;
75847;SDS011;65750;47.540;19.090;2023-04-03T01:38:41;4.80;;;2.90;;
75847;SDS011;65750;47.540;19.090;2023-04-03T01:41:08;4.18;;;2.87;;
75847;SDS011;65750;47.540;19.090;2023-04-03T01:43:36;3.93;;;2.73;;
75847;SDS011;65750;47.540;19.090;2023-04-03T01:46:04;4.37;;;2.78;;
75847;SDS011;65750;47.540;19.090;2023-04-03T01:48:31;4.47;;;3.22;;
75847;SDS011;65750;47.540;19.090;2023-04-03T01:50:59;4.60;;;3.00;;
75847;SDS011;65750;47.540;19.090;2023-04-03T01:53:27;3.50;;;2.45;;
75847;SDS011;65750;47.540;19.090;2023-04-03T01:55:54;5.17;;;3.37;;
75847;SDS011;65750;47.540;19.090;2023-04-03T01:58:21;4.95;;;2.97;;
75847;SDS011;65750;47.540;19.090;2023-04-03T02:00:49;3.95;;;2.72;;
75847;SDS011;65750;47.540;19.090;2023-04-03T02:03:16;4.15;;;2.80;;
75847;SDS011;65750;47.540;19.090;2023-04-03T02:05:43;4.25;;;2.87;;
75847;SDS011;65750;47.540;19.090;2023-04-03T02:08:12;4.20;;;2.80;;
75847;SDS011;65750;47.540;19.090;2023-04-03T02:10:40;3.85;;;2.62;;
75847;SDS011;65750;47.540;19.090;2023-04-03T02:13:07;4.37;;;2.62;;
75847;SDS011;65750;47.540;19.090;2023-04-03T02:15:34;3.83;;;2.60;;
75847;SDS011;65750;47.540;19.090;2023-04-03T02:18:04;4.18;;;2.78;;
75847;SDS011;65750;47.540;19.090;2023-04-03T02:20:31;4.13;;;2.57;;
75847;SDS011;65750;47.540;19.090;2023-04-03T02:22:58;3.67;;;2.53;;
75847;SDS011;65750;47.540;19.090;2023-04-03T02:25:27;4.55;;;2.67;;
75847;SDS011;65750;47.540;19.090;2023-04-03T02:27:54;3.60;;;2.45;;
75847;SDS011;65750;47.540;19.090;2023-04-03T02:30:21;3.80;;;2.65;;
75847;SDS011;65750;47.540;19.090;2023-04-03T02:32:49;4.00;;;2.80;;
75847;SDS011;65750;47.540;19.090;2023-04-03T02:35:16;3.95;;;2.62;;
75847;SDS011;65750;47.540;19.090;2023-04-03T02:37:43;4.10;;;2.65;;
75847;SDS011;65750;47.540;19.090;2023-04-03T02:40:11;3.65;;;2.40;;
75847;SDS011;65750;47.540;19.090;2023-04-03T02:42:40;3.87;;;2.60;;
75847;SDS011;65750;47.540;19.090;2023-04-03T02:45:07;4.33;;;2.70;;
75847;SDS011;65750;47.540;19.090;2023-04-03T02:47:35;3.90;;;2.60;;
75847;SDS011;65750;47.540;19.090;2023-04-03T02:50:02;4.30;;;2.87;;
75847;SDS011;65750;47.540;19.090;2023-04-03T02:52:30;3.37;;;2.45;;
75847;SDS011;65750;47.540;19.090;2023-04-03T02:54:58;3.70;;;2.45;;
75847;SDS011;65750;47.540;19.090;2023-04-03T02:57:26;4.00;;;2.77;;
75847;SDS011;65750;47.540;19.090;2023-04-03T02:59:54;3.95;;;2.50;;
75847;SDS011;65750;47.540;19.090;2023-04-03T03:02:22;3.37;;;2.45;;
75847;SDS011;65750;47.540;19.090;2023-04-03T03:04:49;3.35;;;2.30;;
75847;SDS011;65750;47.540;19.090;2023-04-03T03:07:17;4.40;;;2.80;;
75847;SDS011;65750;47.540;19.090;2023-04-03T03:09:44;3.83;;;2.50;;
75847;SDS011;65750;47.540;19.090;2023-04-03T03:12:11;3.60;;;2.50;;
75847;SDS011;65750;47.540;19.090;2023-04-03T03:14:38;3.95;;;2.60;;
75847;SDS011;65750;47.540;19.090;2023-04-03T03:17:09;4.05;;;2.40;;
75847;SDS011;65750;47.540;19.090;2023-04-03T03:19:36;3.60;;;2.53;;
75847;SDS011;65750;47.540;19.090;2023-04-03T03:22:03;3.53;;;2.43;;
75847;SDS011;65750;47.540;19.090;2023-04-03T03:24:30;3.40;;;2.30;;
75847;SDS011;65750;47.540;19.090;2023-04-03T03:26:57;3.50;;;2.20;;
75847;SDS011;65750;47.540;19.090;2023-04-03T03:29:25;3.83;;;2.55;;
75847;SDS011;65750;47.540;19.090;2023-04-03T03:31:52;4.03;;;2.85;;
75847;SDS011;65750;47.540;19.090;2023-04-03T03:34:20;3.57;;;2.40;;
75847;SDS011;65750;47.540;19.090;2023-04-03T03:36:48;3.30;;;2.50;;
75847;SDS011;65750;47.540;19.090;2023-04-03T03:39:15;3.95;;;2.62;;
75847;SDS011;65750;47.540;19.090;2023-04-03T03:41:44;3.25;;;2.08;;
75847;SDS011;65750;47.540;19.090;2023-04-03T03:44:11;3.65;;;2.45;;
75847;SDS011;65750;47.540;19.090;2023-04-03T03:46:39;4.23;;;2.40;;
75847;SDS011;65750;47.540;19.090;2023-04-03T03:49:06;4.12;;;2.47;;
75847;SDS011;65750;47.540;19.090;2023-04-03T03:51:35;3.85;;;2.50;;
75847;SDS011;65750;47.540;19.090;2023-04-03T03:54:03;3.47;;;2.37;;
75847;SDS011;65750;47.540;19.090;2023-04-03T03:56:30;3.42;;;2.53;;
75847;SDS011;65750;47.540;19.090;2023-04-03T03:58:58;4.43;;;2.47;;
75847;SDS011;65750;47.540;19.090;2023-04-03T04:01:25;3.45;;;2.50;;
75847;SDS011;65750;47.540;19.090;2023-04-03T04:03:53;3.70;;;2.40;;
75847;SDS011;65750;47.540;19.090;2023-04-03T04:06:22;4.10;;;2.40;;
75847;SDS011;65750;47.540;19.090;2023-04-03T04:08:51;3.62;;;2.47;;
75847;SDS011;65750;47.540;19.090;2023-04-03T04:11:19;3.77;;;2.50;;
75847;SDS011;65750;47.540;19.090;2023-04-03T04:13:50;3.75;;;2.65;;
75847;SDS011;65750;47.540;19.090;2023-04-03T04:16:17;3.75;;;2.40;;
75847;SDS011;65750;47.540;19.090;2023-04-03T04:18:44;4.37;;;2.45;;
75847;SDS011;65750;47.540;19.090;2023-04-03T04:21:12;3.85;;;2.30;;
75847;SDS011;65750;47.540;19.090;2023-04-03T04:23:39;3.50;;;2.53;;
75847;SDS011;65750;47.540;19.090;2023-04-03T04:26:08;3.50;;;2.20;;
75847;SDS011;65750;47.540;19.090;2023-04-03T04:28:36;4.15;;;2.65;;
75847;SDS011;65750;47.540;19.090;2023-04-03T04:31:04;3.42;;;2.55;;
75847;SDS011;65750;47.540;19.090;2023-04-03T04:33:32;3.60;;;2.50;;
75847;SDS011;65750;47.540;19.090;2023-04-03T04:36:00;4.27;;;2.37;;
75847;SDS011;65750;47.540;19.090;2023-04-03T04:38:27;3.75;;;2.20;;
75847;SDS011;65750;47.540;19.090;2023-04-03T04:40:56;3.20;;;2.40;;
75847;SDS011;65750;47.540;19.090;2023-04-03T04:43:25;3.45;;;2.35;;
75847;SDS011;65750;47.540;19.090;2023-04-03T04:45:59;3.50;;;2.40;;
75847;SDS011;65750;47.540;19.090;2023-04-03T04:48:29;3.70;;;2.30;;
75847;SDS011;65750;47.540;19.090;2023-04-03T04:50:56;3.25;;;2.15;;
75847;SDS011;65750;47.540;19.090;2023-04-03T04:53:23;3.50;;;2.47;;
75847;SDS011;65750;47.540;19.090;2023-04-03T04:55:51;3.90;;;2.35;;
75847;SDS011;65750;47.540;19.090;2023-04-03T04:58:18;4.00;;;2.70;;
75847;SDS011;65750;47.540;19.090;2023-04-03T05:00:47;3.63;;;2.23;;
75847;SDS011;65750;47.540;19.090;2023-04-03T05:03:15;3.72;;;2.60;;
75847;SDS011;65750;47.540;19.090;2023-04-03T05:05:42;3.10;;;1.90;;
75847;SDS011;65750;47.540;19.090;2023-04-03T05:08:10;3.58;;;2.42;;
75847;SDS011;65750;47.540;19.090;2023-04-03T05:10:38;3.65;;;2.55;;
75847;SDS011;65750;47.540;19.090;2023-04-03T05:13:07;3.30;;;2.13;;
75847;SDS011;65750;47.540;19.090;2023-04-03T05:15:34;3.78;;;2.40;;
75847;SDS011;65750;47.540;19.090;2023-04-03T05:18:04;4.18;;;2.40;;
75847;SDS011;65750;47.540;19.090;2023-04-03T05:20:31;3.67;;;2.53;;
75847;SDS011;65750;47.540;19.090;2023-04-03T05:22:59;3.37;;;2.28;;
75847;SDS011;65750;47.540;19.090;2023-04-03T05:25:27;3.40;;;2.00;;
75847;SDS011;65750;47.540;19.090;2023-04-03T05:27:55;3.58;;;2.40;;
75847;SDS011;65750;47.540;19.090;2023-04-03T05:30:23;3.80;;;2.25;;
75847;SDS011;65750;47.540;19.090;2023-04-03T05:32:50;4.05;;;2.58;;
75847;SDS011;65750;47.540;19.090;2023-04-03T05:35:21;3.12;;;2.33;;
75847;SDS011;65750;47.540;19.090;2023-04-03T05:37:49;4.30;;;2.40;;
75847;SDS011;65750;47.540;19.090;2023-04-03T05:40:17;3.60;;;2.17;;
75847;SDS011;65750;47.540;19.090;2023-04-03T05:42:45;4.12;;;2.60;;
75847;SDS011;65750;47.540;19.090;2023-04-03T05:45:12;3.37;;;2.15;;
75847;SDS011;65750;47.540;19.090;2023-04-03T05:47:39;3.05;;;2.08;;
75847;SDS011;65750;47.540;19.090;2023-04-03T05:50:07;3.23;;;2.17;;
75847;SDS011;65750;47.540;19.090;2023-04-03T05:52:36;4.22;;;1.90;;
75847;SDS011;65750;47.540;19.090;2023-04-03T05:55:06;4.03;;;1.98;;
75847;SDS011;65750;47.540;19.090;2023-04-03T05:57:33;4.87;;;2.25;;
75847;SDS011;65750;47.540;19.090;2023-04-03T06:00:01;4.00;;;2.10;;
75847;SDS011;65750;47.540;19.090;2023-04-03T06:02:39;7.67;;;2.77;;
75847;SDS011;65750;47.540;19.090;2023-04-03T06:05:08;5.12;;;2.37;;
75847;SDS011;65750;47.540;19.090;2023-04-03T06:07:38;4.75;;;2.25;;
75847;SDS011;65750;47.540;19.090;2023-04-03T06:10:06;5.03;;;2.30;;
75847;SDS011;65750;47.540;19.090;2023-04-03T06:12:35;7.70;;;2.60;;
75847;SDS011;65750;47.540;19.090;2023-04-03T06:15:02;5.97;;;2.27;;
75847;SDS011;65750;47.540;19.090;2023-04-03T06:17:30;4.65;;;2.40;;
75847;SDS011;65750;47.540;19.090;2023-04-03T06:19:57;5.60;;;2.45;;
75847;SDS011;65750;47.540;19.090;2023-04-03T06:22:25;5.60;;;2.25;;
75847;SDS011;65750;47.540;19.090;2023-04-03T06:24:57;8.98;;;3.33;;
75847;SDS011;65750;47.540;19.090;2023-04-03T06:27:24;5.87;;;3.03;;
75847;SDS011;65750;47.540;19.090;2023-04-03T06:29:51;7.07;;;2.97;;
75847;SDS011;65750;47.540;19.090;2023-04-03T06:32:18;6.12;;;2.80;;
75847;SDS011;65750;47.540;19.090;2023-04-03T06:34:45;5.50;;;2.67;;
75847;SDS011;65750;47.540;19.090;2023-04-03T06:37:14;10.40;;;2.75;;
75847;SDS011;65750;47.540;19.090;2023-04-03T06:39:42;5.73;;;2.67;;
75847;SDS011;65750;47.540;19.090;2023-04-03T06:42:10;16.73;;;5.22;;
75847;SDS011;65750;47.540;19.090;2023-04-03T06:44:43;19.27;;;5.40;;
75847;SDS011;65750;47.540;19.090;2023-04-03T06:47:11;18.23;;;6.53;;
75847;SDS011;65750;47.540;19.090;2023-04-03T06:49:39;22.33;;;6.82;;
75847;SDS011;65750;47.540;19.090;2023-04-03T06:52:06;18.63;;;4.97;;
75847;SDS011;65750;47.540;19.090;2023-04-03T06:54:34;16.67;;;4.65;;
75847;SDS011;65750;47.540;19.090;2023-04-03T06:57:01;19.12;;;4.80;;
75847;SDS011;65750;47.540;19.090;2023-04-03T06:59:30;22.67;;;5.10;;
75847;SDS011;65750;47.540;19.090;2023-04-03T07:01:57;36.55;;;6.32;;
75847;SDS011;65750;47.540;19.090;2023-04-03T07:04:25;35.80;;;6.03;;
75847;SDS011;65750;47.540;19.090;2023-04-03T07:06:52;55.10;;;6.78;;
75847;SDS011;65750;47.540;19.090;2023-04-03T07:09:19;47.35;;;6.18;;
75847;SDS011;65750;47.540;19.090;2023-04-03T07:11:46;29.65;;;5.00;;
75847;SDS011;65750;47.540;19.090;2023-04-03T07:14:14;27.92;;;4.25;;
75847;SDS011;65750;47.540;19.090;2023-04-03T07:16:42;28.70;;;4.27;;
75847;SDS011;65750;47.540;19.090;2023-04-03T07:19:09;27.37;;;4.87;;
75847;SDS011;65750;47.540;19.090;2023-04-03T07:21:37;31.75;;;4.72;;
75847;SDS011;65750;47.540;19.090;2023-04-03T07:24:04;33.03;;;4.72;;
75847;SDS011;65750;47.540;19.090;2023-04-03T07:26:32;25.50;;;4.95;;
75847;SDS011;65750;47.540;19.090;2023-04-03T07:28:59;24.80;;;5.20;;
75847;SDS011;65750;47.540;19.090;2023-04-03T07:31:27;21.70;;;4.30;;
75847;SDS011;65750;47.540;19.090;2023-04-03T07:33:55;20.55;;;4.50;;
75847;SDS011;65750;47.540;19.090;2023-04-03T07:36:22;21.33;;;4.22;;
75847;SDS011;65750;47.540;19.090;2023-04-03T07:38:50;31.42;;;5.07;;
75847;SDS011;65750;47.540;19.090;2023-04-03T07:41:18;27.80;;;4.70;;
75847;SDS011;65750;47.540;19.090;2023-04-03T07:43:46;20.62;;;4.50;;
75847;SDS011;65750;47.540;19.090;2023-04-03T07:46:15;26.37;;;4.32;;
75847;SDS011;65750;47.540;19.090;2023-04-03T07:48:43;23.90;;;4.53;;
75847;SDS011;65750;47.540;19.090;2023-04-03T07:51:11;20.35;;;4.10;;
75847;SDS011;65750;47.540;19.090;2023-04-03T07:53:39;15.33;;;4.00;;
75847;SDS011;65750;47.540;19.090;2023-04-03T07:56:06;15.85;;;3.85;;
75847;SDS011;65750;47.540;19.090;2023-04-03T07:58:34;12.90;;;4.00;;
75847;SDS011;65750;47.540;19.090;2023-04-03T08:01:03;15.57;;;3.80;;
75847;SDS011;65750;47.540;19.090;2023-04-03T08:03:30;21.27;;;4.75;;
75847;SDS011;65750;47.540;19.090;2023-04-03T08:06:01;11.93;;;3.47;;
75847;SDS011;65750;47.540;19.090;2023-04-03T08:08:30;17.27;;;3.90;;
75847;SDS011;65750;47.540;19.090;2023-04-03T08:10:59;17.52;;;3.37;;
75847;SDS011;65750;47.540;19.090;2023-04-03T08:13:28;15.82;;;4.20;;
75847;SDS011;65750;47.540;19.090;2023-04-03T08:15:55;16.90;;;3.72;;
75847;SDS011;65750;47.540;19.090;2023-04-03T08:18:23;15.63;;;3.90;;
75847;SDS011;65750;47.540;19.090;2023-04-03T08:20:52;13.10;;;3.60;;
75847;SDS011;65750;47.540;19.090;2023-04-03T08:23:20;11.32;;;3.72;;
75847;SDS011;65750;47.540;19.090;2023-04-03T08:25:48;18.23;;;3.78;;
75847;SDS011;65750;47.540;19.090;2023-04-03T08:28:16;11.45;;;3.37;;
75847;SDS011;65750;47.540;19.090;2023-04-03T08:30:43;7.83;;;3.10;;
75847;SDS011;65750;47.540;19.090;2023-04-03T08:33:11;11.43;;;3.58;;
75847;SDS011;65750;47.540;19.090;2023-04-03T08:35:39;9.73;;;2.70;;
75847;SDS011;65750;47.540;19.090;2023-04-03T08:38:06;11.35;;;3.10;;
75847;SDS011;65750;47.540;19.090;2023-04-03T08:40:34;8.20;;;2.62;;
75847;SDS011;65750;47.540;19.090;2023-04-03T08:43:06;10.83;;;3.10;;
75847;SDS011;65750;47.540;19.090;2023-04-03T08:45:42;9.65;;;2.90;;
75847;SDS011;65750;47.540;19.090;2023-04-03T08:48:13;9.77;;;3.33;;
75847;SDS011;65750;47.540;19.090;2023-04-03T08:50:43;10.23;;;3.37;;
75847;SDS011;65750;47.540;19.090;2023-04-03T08:53:12;9.15;;;3.33;;
75847;SDS011;65750;47.540;19.090;2023-04-03T08:55:42;7.90;;;3.57;;
75847;SDS011;65750;47.540;19.090;2023-04-03T08:58:13;7.62;;;3.17;;
75847;SDS011;65750;47.540;19.090;2023-04-03T09:00:44;8.00;;;3.08;;
75847;SDS011;65750;47.540;19.090;2023-04-03T09:03:14;8.93;;;2.92;;
75847;SDS011;65750;47.540;19.090;2023-04-03T09:05:43;8.40;;;2.92;;
75847;SDS011;65750;47.540;19.090;2023-04-03T09:08:18;7.93;;;2.83;;
75847;SDS011;65750;47.540;19.090;2023-04-03T09:11:03;7.68;;;3.00;;
75847;SDS011;65750;47.540;19.090;2023-04-03T09:13:36;9.55;;;3.40;;
75847;SDS011;65750;47.540;19.090;2023-04-03T09:16:12;8.27;;;2.50;;
75847;SDS011;65750;47.540;19.090;2023-04-03T09:18:48;8.35;;;2.62;;
75847;SDS011;65750;47.540;19.090;2023-04-03T09:21:20;8.40;;;2.80;;
75847;SDS011;65750;47.540;19.090;2023-04-03T09:23:51;7.65;;;2.78;;
75847;SDS011;65750;47.540;19.090;2023-04-03T09:26:21;8.20;;;3.40;;
75847;SDS011;65750;47.540;19.090;2023-04-03T09:28:53;8.00;;;2.53;;
75847;SDS011;65750;47.540;19.090;2023-04-03T09:31:21;6.82;;;2.45;;
75847;SDS011;65750;47.540;19.090;2023-04-03T09:33:50;7.23;;;2.60;;
75847;SDS011;65750;47.540;19.090;2023-04-03T09:39:16;7.53;;;2.72;;
75847;SDS011;65750;47.540;19.090;2023-04-03T09:41:54;7.22;;;2.62;;
75847;SDS011;65750;47.540;19.090;2023-04-03T09:44:25;8.27;;;3.00;;
75847;SDS011;65750;47.540;19.090;2023-04-03T09:46:53;9.40;;;3.60;;
75847;SDS011;65750;47.540;19.090;2023-04-03T09:49:20;6.00;;;2.40;;
75847;SDS011;65750;47.540;19.090;2023-04-03T09:51:48;8.52;;;2.62;;
75847;SDS011;65750;47.540;19.090;2023-04-03T09:54:23;8.00;;;2.35;;
75847;SDS011;65750;47.540;19.090;2023-04-03T09:57:06;6.70;;;2.37;;
75847;SDS011;65750;47.540;19.090;2023-04-03T09:59:40;7.10;;;2.17;;
75847;SDS011;65750;47.540;19.090;2023-04-03T10:05:04;6.05;;;2.42;;
75847;SDS011;65750;47.540;19.090;2023-04-03T10:07:50;6.90;;;2.45;;
75847;SDS011;65750;47.540;19.090;2023-04-03T10:10:18;6.00;;;2.53;;
75847;SDS011;65750;47.540;19.090;2023-04-03T10:12:48;8.20;;;3.23;;
75847;SDS011;65750;47.540;19.090;2023-04-03T10:15:17;6.60;;;2.78;;
75847;SDS011;65750;47.540;19.090;2023-04-03T10:17:50;5.30;;;2.20;;
75847;SDS011;65750;47.540;19.090;2023-04-03T10:20:25;5.93;;;2.35;;
75847;SDS011;65750;47.540;19.090;2023-04-03T10:22:56;5.05;;;2.17;;
75847;SDS011;65750;47.540;19.090;2023-04-03T10:25:30;7.33;;;2.90;;
75847;SDS011;65750;47.540;19.090;2023-04-03T10:28:02;4.20;;;2.40;;
75847;SDS011;65750;47.540;19.090;2023-04-03T10:30:36;6.00;;;2.80;;
75847;SDS011;65750;47.540;19.090;2023-04-03T10:36:12;5.62;;;1.92;;
75847;SDS011;65750;47.540;19.090;2023-04-03T10:38:48;4.90;;;2.20;;
75847;SDS011;65750;47.540;19.090;2023-04-03T10:41:21;5.12;;;2.12;;
75847;SDS011;65750;47.540;19.090;2023-04-03T10:43:54;5.47;;;2.50;;
75847;SDS011;65750;47.540;19.090;2023-04-03T10:46:28;4.35;;;1.75;;
75847;SDS011;65750;47.540;19.090;2023-04-03T10:49:05;4.55;;;2.10;;
75847;SDS011;65750;47.540;19.090;2023-04-03T10:51:40;4.23;;;2.13;;
75847;SDS011;65750;47.540;19.090;2023-04-03T10:54:11;5.75;;;2.20;;
75847;SDS011;65750;47.540;19.090;2023-04-03T10:56:40;3.70;;;1.62;;
75847;SDS011;65750;47.540;19.090;2023-04-03T10:59:13;3.33;;;1.27;;
75847;SDS011;65750;47.540;19.090;2023-04-03T11:01:46;3.25;;;1.30;;
75847;SDS011;65750;47.540;19.090;2023-04-03T11:04:16;4.27;;;1.40;;
75847;SDS011;65750;47.540;19.090;2023-04-03T11:06:46;3.65;;;1.20;;
75847;SDS011;65750;47.540;19.090;2023-04-03T11:09:16;4.18;;;1.00;;
75847;SDS011;65750;47.540;19.090;2023-04-03T11:11:47;3.75;;;1.10;;
75847;SDS011;65750;47.540;19.090;2023-04-03T11:14:16;5.93;;;1.17;;
75847;SDS011;65750;47.540;19.090;2023-04-03T11:16:50;3.37;;;0.87;;
75847;SDS011;65750;47.540;19.090;2023-04-03T11:19:24;4.43;;;2.12;;
75847;SDS011;65750;47.540;19.090;2023-04-03T11:22:01;9.25;;;2.45;;
75847;SDS011;65750;47.540;19.090;2023-04-03T11:24:31;4.97;;;2.10;;
75847;SDS011;65750;47.540;19.090;2023-04-03T11:27:00;2.40;;;1.02;;
75847;SDS011;65750;47.540;19.090;2023-04-03T11:29:31;2.60;;;1.20;;
75847;SDS011;65750;47.540;19.090;2023-04-03T11:32:05;2.20;;;0.90;;
75847;SDS011;65750;47.540;19.090;2023-04-03T11:34:37;1.80;;;0.60;;
75847;SDS011;65750;47.540;19.090;2023-04-03T11:37:13;2.40;;;1.10;;
75847;SDS011;65750;47.540;19.090;2023-04-03T11:39:47;2.75;;;0.80;;
75847;SDS011;65750;47.540;19.090;2023-04-03T11:42:27;2.17;;;0.90;;
75847;SDS011;65750;47.540;19.090;2023-04-03T11:45:24;5.55;;;1.42;;
75847;SDS011;65750;47.540;19.090;2023-04-03T11:47:57;2.03;;;0.88;;
75847;SDS011;65750;47.540;19.090;2023-04-03T11:50:30;5.43;;;0.95;;
75847;SDS011;65750;47.540;19.090;2023-04-03T11:53:09;26.58;;;1.75;;
75847;SDS011;65750;47.540;19.090;2023-04-03T11:55:54;25.33;;;2.13;;
75847;SDS011;65750;47.540;19.090;2023-04-03T11:58:23;25.10;;;2.10;;
75847;SDS011;65750;47.540;19.090;2023-04-03T12:00:52;21.20;;;1.90;;
75847;SDS011;65750;47.540;19.090;2023-04-03T12:09:25;20.30;;;2.23;;
75847;SDS011;65750;47.540;19.090;2023-04-03T12:11:54;12.95;;;1.55;;
75847;SDS011;65750;47.540;19.090;2023-04-03T12:14:22;14.35;;;1.62;;
75847;SDS011;65750;47.540;19.090;2023-04-03T12:16:50;13.05;;;1.98;;
75847;SDS011;65750;47.540;19.090;2023-04-03T12:22:13;7.80;;;1.57;;
75847;SDS011;65750;47.540;19.090;2023-04-03T12:24:42;13.00;;;2.55;;
75847;SDS011;65750;47.540;19.090;2023-04-03T12:27:16;11.27;;;1.60;;
75847;SDS011;65750;47.540;19.090;2023-04-03T12:29:47;8.50;;;1.80;;
75847;SDS011;65750;47.540;19.090;2023-04-03T12:32:22;10.95;;;1.70;;
75847;SDS011;65750;47.540;19.090;2023-04-03T12:35:09;12.73;;;1.77;;
75847;SDS011;65750;47.540;19.090;2023-04-03T12:37:48;12.85;;;1.73;;
75847;SDS011;65750;47.540;19.090;2023-04-03T12:40:24;11.75;;;2.60;;
75847;SDS011;65750;47.540;19.090;2023-04-03T12:42:56;8.48;;;1.30;;
75847;SDS011;65750;47.540;19.090;2023-04-03T12:45:51;8.40;;;1.48;;
75847;SDS011;65750;47.540;19.090;2023-04-03T12:48:25;10.57;;;1.60;;
75847;SDS011;65750;47.540;19.090;2023-04-03T12:50:54;12.00;;;1.35;;
75847;SDS011;65750;47.540;19.090;2023-04-03T12:53:24;7.85;;;1.42;;
75847;SDS011;65750;47.540;19.090;2023-04-03T12:55:56;5.65;;;1.27;;
75847;SDS011;65750;47.540;19.090;2023-04-03T12:58:25;6.68;;;1.37;;
75847;SDS011;65750;47.540;19.090;2023-04-03T13:01:00;6.37;;;1.30;;
75847;SDS011;65750;47.540;19.090;2023-04-03T13:03:29;6.22;;;1.60;;
75847;SDS011;65750;47.540;19.090;2023-04-03T13:05:58;9.50;;;1.20;;
75847;SDS011;65750;47.540;19.090;2023-04-03T13:08:27;9.80;;;3.30;;
75847;SDS011;65750;47.540;19.090;2023-04-03T13:10:55;6.20;;;1.27;;
75847;SDS011;65750;47.540;19.090;2023-04-03T13:13:25;5.43;;;1.17;;
75847;SDS011;65750;47.540;19.090;2023-04-03T13:15:53;7.22;;;1.35;;
75847;SDS011;65750;47.540;19.090;2023-04-03T13:18:22;4.78;;;1.73;;
75847;SDS011;65750;47.540;19.090;2023-04-03T13:20:50;3.22;;;0.90;;
75847;SDS011;65750;47.540;19.090;2023-04-03T13:23:19;3.08;;;1.00;;
75847;SDS011;65750;47.540;19.090;2023-04-03T13:25:49;4.83;;;1.37;;
75847;SDS011;65750;47.540;19.090;2023-04-03T13:28:18;4.03;;;1.12;;
75847;SDS011;65750;47.540;19.090;2023-04-03T13:30:55;3.03;;;0.88;;
75847;SDS011;65750;47.540;19.090;2023-04-03T13:33:28;5.20;;;0.90;;
75847;SDS011;65750;47.540;19.090;2023-04-03T13:36:00;1.92;;;0.90;;
75847;SDS011;65750;47.540;19.090;2023-04-03T13:38:32;4.50;;;0.93;;
75847;SDS011;65750;47.540;19.090;2023-04-03T13:41:02;2.47;;;0.70;;
75847;SDS011;65750;47.540;19.090;2023-04-03T13:43:32;2.72;;;0.62;;
75847;SDS011;65750;47.540;19.090;2023-04-03T13:46:05;1.90;;;0.73;;
75847;SDS011;65750;47.540;19.090;2023-04-03T13:48:48;2.45;;;0.68;;
75847;SDS011;65750;47.540;19.090;2023-04-03T13:51:17;3.80;;;0.90;;
75847;SDS011;65750;47.540;19.090;2023-04-03T13:53:48;5.45;;;1.00;;
75847;SDS011;65750;47.540;19.090;2023-04-03T13:56:18;11.57;;;2.55;;
75847;SDS011;65750;47.540;19.090;2023-04-03T13:58:52;1.95;;;0.80;;
75847;SDS011;65750;47.540;19.090;2023-04-03T14:01:24;3.47;;;1.00;;
75847;SDS011;65750;47.540;19.090;2023-04-03T14:03:54;4.03;;;1.00;;
75847;SDS011;65750;47.540;19.090;2023-04-03T14:06:23;7.50;;;0.90;;
75847;SDS011;65750;47.540;19.090;2023-04-03T14:08:52;4.70;;;0.90;;
75847;SDS011;65750;47.540;19.090;2023-04-03T14:11:21;3.65;;;1.08;;
75847;SDS011;65750;47.540;19.090;2023-04-03T14:13:49;2.75;;;0.90;;
75847;SDS011;65750;47.540;19.090;2023-04-03T14:16:19;3.70;;;1.10;;
75847;SDS011;65750;47.540;19.090;2023-04-03T14:18:50;4.60;;;1.10;;
75847;SDS011;65750;47.540;19.090;2023-04-03T14:21:19;3.30;;;1.35;;
75847;SDS011;65750;47.540;19.090;2023-04-03T14:23:47;2.65;;;1.20;;
75847;SDS011;65750;47.540;19.090;2023-04-03T14:26:17;5.10;;;1.27;;
75847;SDS011;65750;47.540;19.090;2023-04-03T14:28:46;2.10;;;1.00;;
75847;SDS011;65750;47.540;19.090;2023-04-03T14:31:15;2.33;;;1.00;;
75847;SDS011;65750;47.540;19.090;2023-04-03T14:33:45;6.32;;;1.00;;
75847;SDS011;65750;47.540;19.090;2023-04-03T14:36:13;3.10;;;1.17;;
75847;SDS011;65750;47.540;19.090;2023-04-03T14:38:42;6.15;;;1.58;;
75847;SDS011;65750;47.540;19.090;2023-04-03T14:41:10;5.70;;;3.10;;
75847;SDS011;65750;47.540;19.090;2023-04-03T14:43:40;16.70;;;4.60;;
75847;SDS011;65750;47.540;19.090;2023-04-03T14:46:10;149.82;;;21.92;;
75847;SDS011;65750;47.540;19.090;2023-04-03T14:48:40;154.18;;;24.33;;
75847;SDS011;65750;47.540;19.090;2023-04-03T14:51:08;118.25;;;19.10;;
75847;SDS011;65750;47.540;19.090;2023-04-03T14:53:37;103.13;;;15.63;;
75847;SDS011;65750;47.540;19.090;2023-04-03T14:56:05;82.95;;;15.27;;
75847;SDS011;65750;47.540;19.090;2023-04-03T14:58:40;72.35;;;12.20;;
75847;SDS011;65750;47.540;19.090;2023-04-03T15:01:08;56.83;;;11.95;;
75847;SDS011;65750;47.540;19.090;2023-04-03T15:03:37;72.43;;;11.82;;
75847;SDS011;65750;47.540;19.090;2023-04-03T15:06:05;59.63;;;10.43;;